createdAt,value
2022-08-04T00:02:25.781Z,29.17
2022-08-04T00:05:05.895Z,27.27
2022-08-04T00:07:44.743Z,24.63
2022-08-04T00:10:14.170Z,29.43
2022-08-04T00:12:45.091Z,24.03
2022-08-04T00:15:14.812Z,27.57
2022-08-04T00:17:46.077Z,29.87
2022-08-04T00:20:18.373Z,31.50
2022-08-04T00:22:46.628Z,28.33
2022-08-04T00:25:13.175Z,27.90
2022-08-04T00:27:39.853Z,23.70
2022-08-04T00:30:07.312Z,30.87
2022-08-04T00:32:34.922Z,31.17
2022-08-04T00:35:02.049Z,35.77
2022-08-04T00:37:28.906Z,31.07
2022-08-04T00:39:56.572Z,27.73
2022-08-04T00:42:31.906Z,22.33
2022-08-04T00:45:07.634Z,23.07
2022-08-04T00:47:52.848Z,26.33
2022-08-04T00:50:25.784Z,27.30
2022-08-04T00:53:29.638Z,27.20
2022-08-04T00:56:25.796Z,22.87
2022-08-04T00:59:20.646Z,25.23
2022-08-04T01:02:08.998Z,26.17
2022-08-04T01:05:12.417Z,22.40
2022-08-04T01:08:20.047Z,33.47
2022-08-04T01:10:59.857Z,23.70
2022-08-04T01:13:26.155Z,30.20
2022-08-04T01:16:12.878Z,33.00
2022-08-04T01:18:59.321Z,24.93
2022-08-04T01:21:51.711Z,23.10
2022-08-04T01:24:36.097Z,29.10
2022-08-04T01:27:12.089Z,25.77
2022-08-04T01:29:51.530Z,28.70
2022-08-04T01:32:32.302Z,27.43
2022-08-04T01:35:03.710Z,24.20
2022-08-04T01:37:46.547Z,27.37
2022-08-04T01:40:15.123Z,29.23
2022-08-04T01:42:42.463Z,30.03
2022-08-04T01:45:10.789Z,25.27
2022-08-04T01:47:41.025Z,23.83
2022-08-04T01:50:13.912Z,22.80
2022-08-04T01:52:43.887Z,26.17
2022-08-04T01:55:14.371Z,25.10
2022-08-04T01:57:44.706Z,38.97
2022-08-04T02:00:17.328Z,29.33
2022-08-04T02:02:44.922Z,25.33
2022-08-04T02:05:12.692Z,28.50
2022-08-04T02:07:51.630Z,31.23
2022-08-04T02:10:29.972Z,25.23
2022-08-04T02:13:26.127Z,28.40
2022-08-04T02:16:02.481Z,22.70
2022-08-04T02:18:44.506Z,25.70
2022-08-04T02:21:12.439Z,26.63
2022-08-04T02:23:41.126Z,26.00
2022-08-04T02:26:22.165Z,24.73
2022-08-04T02:29:18.070Z,21.30
2022-08-04T02:32:00.513Z,22.17
2022-08-04T02:34:29.907Z,30.33
2022-08-04T02:36:56.869Z,26.53
2022-08-04T02:39:23.803Z,30.20
2022-08-04T02:41:50.817Z,31.30
2022-08-04T02:44:22.516Z,25.63
2022-08-04T02:46:51.706Z,27.20
2022-08-04T02:49:18.891Z,25.07
2022-08-04T02:51:48.009Z,27.93
2022-08-04T02:54:16.299Z,24.57
2022-08-04T02:57:00.142Z,26.43
2022-08-04T02:59:27.387Z,27.47
2022-08-04T03:01:57.980Z,26.33
2022-08-04T03:04:50.520Z,22.63
2022-08-04T03:07:31.637Z,23.87
2022-08-04T03:10:10.073Z,22.63
2022-08-04T03:13:00.684Z,30.47
2022-08-04T03:15:45.860Z,24.53
2022-08-04T03:18:18.260Z,24.93
2022-08-04T03:20:49.694Z,30.80
2022-08-04T03:23:40.525Z,31.80
2022-08-04T03:26:28.791Z,28.23
2022-08-04T03:29:40.390Z,27.57
2022-08-04T03:32:23.988Z,25.47
2022-08-04T03:35:24.463Z,24.53
2022-08-04T03:38:15.586Z,21.53
2022-08-04T03:41:50.980Z,28.00
2022-08-04T03:44:30.111Z,27.73
2022-08-04T03:47:08.632Z,23.80
2022-08-04T03:50:04.493Z,24.53
2022-08-04T03:53:09.431Z,24.87
2022-08-04T03:55:38.883Z,20.77
2022-08-04T03:58:33.970Z,32.07
2022-08-04T04:01:41.607Z,27.00
2022-08-04T04:04:44.994Z,29.40
2022-08-04T04:08:01.495Z,31.13
2022-08-04T04:10:31.441Z,26.23
2022-08-04T04:13:15.483Z,22.87
2022-08-04T04:16:07.233Z,20.53
2022-08-04T04:18:46.666Z,24.67
2022-08-04T04:21:30.260Z,30.43
2022-08-04T04:24:08.701Z,21.80
2022-08-04T04:27:10.108Z,23.57
2022-08-04T04:30:04.219Z,19.80
2022-08-04T04:33:12.579Z,20.77
2022-08-04T04:35:57.676Z,22.57
2022-08-04T04:38:42.881Z,25.07
2022-08-04T04:41:15.343Z,20.70
2022-08-04T04:44:15.965Z,22.43
2022-08-04T04:47:04.603Z,25.30
2022-08-04T04:49:54.741Z,26.57
2022-08-04T04:52:30.275Z,20.67
2022-08-04T04:55:11.615Z,22.83
2022-08-04T04:57:54.329Z,20.43
2022-08-04T05:00:24.001Z,24.30
2022-08-04T05:03:09.171Z,17.77
2022-08-04T05:06:08.381Z,19.47
2022-08-04T05:08:54.563Z,19.60
2022-08-04T05:12:02.541Z,26.00
2022-08-04T05:14:41.413Z,21.87
2022-08-04T05:17:30.570Z,16.60
2022-08-04T05:20:15.036Z,21.93
2022-08-04T05:23:07.760Z,19.63
2022-08-04T05:25:37.229Z,25.63
2022-08-04T05:28:15.909Z,19.07
2022-08-04T05:30:50.549Z,16.20
2022-08-04T05:33:23.130Z,11.63
2022-08-04T05:36:18.925Z,18.07
2022-08-04T05:38:44.956Z,15.70
2022-08-04T05:41:11.690Z,19.10
2022-08-04T05:43:40.469Z,14.57
2022-08-04T05:46:08.260Z,16.97
2022-08-04T05:48:35.915Z,17.70
2022-08-04T05:51:03.563Z,12.70
2022-08-04T05:53:30.752Z,14.30
2022-08-04T05:55:59.689Z,13.93
2022-08-04T05:58:30.069Z,12.90
2022-08-04T06:00:57.345Z,13.77
2022-08-04T06:03:24.071Z,13.47
2022-08-04T06:05:51.801Z,14.07
2022-08-04T06:08:18.484Z,12.67
2022-08-04T06:10:46.207Z,15.63
2022-08-04T06:13:47.592Z,14.70
2022-08-04T06:16:02.414Z,15.17
2022-08-04T06:19:40.116Z,12.13
2022-08-04T06:21:19.199Z,13.15
2022-08-04T06:23:53.801Z,9.85
2022-08-04T06:26:29.194Z,13.80
2022-08-04T06:28:56.858Z,7.80
2022-08-04T06:32:28.011Z,10.95
2022-08-04T06:34:30.227Z,13.60
2022-08-04T06:36:57.383Z,9.07
2022-08-04T06:39:25.203Z,11.77
2022-08-04T06:42:14.898Z,12.02
2022-08-04T06:44:40.764Z,17.63
2022-08-04T06:47:07.425Z,13.60
2022-08-04T06:49:44.224Z,12.77
2022-08-04T06:52:21.558Z,10.02
2022-08-04T06:54:49.878Z,8.57
2022-08-04T06:57:30.071Z,14.93
2022-08-04T07:00:11.217Z,12.52
2022-08-04T07:02:53.029Z,12.93
2022-08-04T07:05:20.259Z,10.95
2022-08-04T07:07:56.827Z,11.70
2022-08-04T07:10:28.165Z,12.20
2022-08-04T07:12:59.505Z,14.00
2022-08-04T07:15:26.837Z,13.50
2022-08-04T07:17:54.442Z,10.07
2022-08-04T07:20:34.653Z,8.25
2022-08-04T07:23:06.895Z,11.82
2022-08-04T07:26:00.165Z,9.93
2022-08-04T07:28:22.268Z,15.35
2022-08-04T07:30:49.493Z,9.13
2022-08-04T07:33:19.446Z,16.55
2022-08-04T07:36:05.228Z,14.65
2022-08-04T07:38:37.662Z,9.95
2022-08-04T07:43:59.429Z,13.13
2022-08-04T07:46:26.222Z,10.65
2022-08-04T07:48:59.222Z,10.57
2022-08-04T07:51:25.754Z,11.90
2022-08-04T07:53:56.176Z,10.88
2022-08-04T07:56:23.267Z,7.88
2022-08-04T07:58:49.906Z,6.72
2022-08-04T08:01:17.136Z,20.92
2022-08-04T08:03:43.672Z,7.75
2022-08-04T08:06:17.200Z,8.90
2022-08-04T08:08:57.022Z,9.82
2022-08-04T08:11:23.985Z,9.70
2022-08-04T08:14:10.470Z,12.18
2022-08-04T08:16:37.814Z,7.30
2022-08-04T08:19:07.546Z,7.78
2022-08-04T08:21:34.313Z,14.60
2022-08-04T08:24:20.742Z,8.77
2022-08-04T08:26:47.360Z,9.68
2022-08-04T08:29:14.062Z,7.93
2022-08-04T08:31:56.380Z,7.40
2022-08-04T08:34:28.603Z,12.07
2022-08-04T08:36:59.773Z,10.32
2022-08-04T08:39:31.407Z,7.30
2022-08-04T08:42:16.622Z,7.47
2022-08-04T08:44:57.831Z,9.07
2022-08-04T08:48:05.434Z,5.60
2022-08-04T08:50:48.220Z,6.20
2022-08-04T08:53:32.247Z,7.82
2022-08-04T08:56:13.924Z,6.10
2022-08-04T08:58:51.777Z,9.68
2022-08-04T09:01:52.937Z,9.85
2022-08-04T09:04:37.799Z,9.00
2022-08-04T09:07:38.557Z,7.78
2022-08-04T09:10:33.051Z,9.63
2022-08-04T09:13:13.585Z,8.48
2022-08-04T09:15:48.192Z,3.58
2022-08-04T09:18:24.254Z,6.55
2022-08-04T09:20:56.662Z,6.25
2022-08-04T09:23:50.527Z,7.60
2022-08-04T09:26:41.271Z,6.93
2022-08-04T09:29:07.605Z,6.90
2022-08-04T09:31:48.728Z,7.05
2022-08-04T09:34:39.398Z,20.65
2022-08-04T09:37:32.693Z,7.15
2022-08-04T09:40:31.933Z,8.40
2022-08-04T09:43:12.462Z,5.03
2022-08-04T09:45:46.985Z,8.13
2022-08-04T09:48:22.486Z,7.28
2022-08-04T09:50:55.200Z,5.65
2022-08-04T09:53:46.971Z,10.48
2022-08-04T09:56:39.110Z,10.13
2022-08-04T09:59:28.202Z,8.50
2022-08-04T10:02:00.255Z,78.57
2022-08-04T10:04:30.584Z,7.63
2022-08-04T10:07:09.958Z,7.28
2022-08-04T10:10:13.622Z,7.15
2022-08-04T10:12:55.624Z,3.97
2022-08-04T10:15:28.352Z,3.33
2022-08-04T10:17:54.752Z,6.50
2022-08-04T10:20:51.703Z,10.15
2022-08-04T10:23:32.385Z,5.55
2022-08-04T10:26:56.967Z,6.35
2022-08-04T10:29:46.776Z,7.53
2022-08-04T10:32:21.401Z,6.43
2022-08-04T10:35:05.973Z,6.82
2022-08-04T10:37:59.334Z,3.08
2022-08-04T10:40:40.990Z,4.18
2022-08-04T10:43:21.030Z,3.90
2022-08-04T10:45:58.469Z,2.65
2022-08-04T10:48:40.228Z,5.88
2022-08-04T10:51:25.878Z,4.30
2022-08-04T10:53:57.680Z,2.03
2022-08-04T10:56:32.687Z,3.10
2022-08-04T10:59:10.896Z,5.22
2022-08-04T11:01:50.835Z,2.70
2022-08-04T11:04:38.208Z,6.85
2022-08-04T11:07:04.975Z,11.52
2022-08-04T11:09:32.410Z,4.13
2022-08-04T11:12:08.188Z,5.20
2022-08-04T11:14:43.556Z,4.68
2022-08-04T11:17:17.906Z,4.90
2022-08-04T11:20:32.995Z,3.45
2022-08-04T11:23:06.367Z,5.18
2022-08-04T11:25:37.952Z,8.75
2022-08-04T11:28:16.677Z,3.97
2022-08-04T11:30:51.541Z,3.22
2022-08-04T11:33:17.937Z,4.13
2022-08-04T11:35:52.328Z,3.40
2022-08-04T11:39:08.824Z,4.07
2022-08-04T11:41:52.807Z,5.95
2022-08-04T11:44:49.811Z,6.53
2022-08-04T11:47:32.262Z,4.68
2022-08-04T11:50:20.699Z,6.97
2022-08-04T11:52:48.274Z,5.15
2022-08-04T11:55:21.200Z,6.07
2022-08-04T11:57:54.086Z,4.90
2022-08-04T12:00:38.762Z,2.53
2022-08-04T12:03:26.385Z,5.70
2022-08-04T12:06:25.877Z,4.07
2022-08-04T12:09:19.192Z,2.95
2022-08-04T12:11:59.451Z,6.43
2022-08-04T12:14:50.014Z,5.55
2022-08-04T12:17:22.987Z,3.35
2022-08-04T12:20:03.867Z,4.25
2022-08-04T12:22:45.666Z,4.38
2022-08-04T12:25:18.565Z,3.63
2022-08-04T12:27:59.502Z,5.20
2022-08-04T12:30:59.210Z,4.00
2022-08-04T12:33:23.322Z,5.75
2022-08-04T12:36:21.122Z,4.20
2022-08-04T12:39:03.507Z,4.40
2022-08-04T12:41:36.173Z,2.03
2022-08-04T12:44:07.658Z,3.42
2022-08-04T12:46:54.650Z,7.35
2022-08-04T12:49:44.566Z,2.13
2022-08-04T12:52:34.627Z,4.75
2022-08-04T12:55:12.087Z,13.07
2022-08-04T12:57:40.538Z,8.40
2022-08-04T13:00:08.524Z,3.33
2022-08-04T13:02:41.932Z,3.38
2022-08-04T13:05:09.685Z,4.30
2022-08-04T13:07:48.001Z,5.35
2022-08-04T13:10:18.287Z,5.75
2022-08-04T13:12:52.947Z,5.28
2022-08-04T13:15:22.318Z,3.03
2022-08-04T13:17:57.097Z,1.70
2022-08-04T13:20:32.520Z,3.97
2022-08-04T13:23:21.431Z,4.47
2022-08-04T13:26:44.109Z,5.22
2022-08-04T13:28:52.692Z,1.60
2022-08-04T13:31:21.427Z,2.33
2022-08-04T13:33:50.678Z,5.43
2022-08-04T13:36:18.613Z,4.25
2022-08-04T13:38:49.779Z,4.30
2022-08-04T13:41:17.143Z,2.85
2022-08-04T13:44:16.043Z,5.75
2022-08-04T13:46:37.450Z,5.90
2022-08-04T13:49:28.360Z,7.40
2022-08-04T13:51:59.107Z,9.85
2022-08-04T13:54:42.584Z,6.53
2022-08-04T13:57:25.317Z,10.85
2022-08-04T13:59:52.859Z,9.43
2022-08-04T14:02:32.483Z,9.18
2022-08-04T14:05:04.532Z,10.02
2022-08-04T14:07:32.069Z,13.98
2022-08-04T14:10:02.596Z,13.93
2022-08-04T14:12:45.740Z,18.45
2022-08-04T14:15:59.374Z,13.77
2022-08-04T14:18:25.691Z,11.85
2022-08-04T14:21:12.949Z,11.68
2022-08-04T14:23:51.412Z,14.98
2022-08-04T14:26:32.876Z,20.30
2022-08-04T14:29:26.924Z,19.95
2022-08-04T14:32:01.811Z,9.88
2022-08-04T14:34:30.329Z,9.90
2022-08-04T14:37:17.039Z,13.70
2022-08-04T14:40:17.332Z,9.52
2022-08-04T14:42:55.530Z,10.10
2022-08-04T14:45:29.516Z,10.53
2022-08-04T14:47:56.433Z,8.43
2022-08-04T14:50:35.415Z,6.87
2022-08-04T14:53:12.367Z,12.63
2022-08-04T14:55:40.816Z,8.57
2022-08-04T14:58:32.601Z,13.80
2022-08-04T15:00:56.950Z,9.40
2022-08-04T15:03:24.562Z,9.15
2022-08-04T15:05:55.366Z,9.80
2022-08-04T15:08:31.662Z,11.00
2022-08-04T15:11:02.224Z,12.68
2022-08-04T15:13:29.860Z,11.73
2022-08-04T15:16:07.158Z,12.05
2022-08-04T15:18:35.884Z,10.70
2022-08-04T15:21:02.899Z,11.63
2022-08-04T15:23:32.009Z,13.70
2022-08-04T15:26:09.360Z,12.40
2022-08-04T15:28:37.642Z,12.35
2022-08-04T15:31:05.332Z,10.57
2022-08-04T15:33:51.884Z,11.27
2022-08-04T15:36:42.722Z,13.10
2022-08-04T15:39:27.860Z,14.47
2022-08-04T15:42:17.522Z,15.47
2022-08-04T15:44:58.456Z,15.80
2022-08-04T15:47:25.410Z,13.27
2022-08-04T15:50:28.418Z,14.37
2022-08-04T15:53:01.386Z,12.17
2022-08-04T15:55:43.958Z,17.07
2022-08-04T15:58:13.256Z,16.27
2022-08-04T16:01:02.686Z,13.33
2022-08-04T16:03:59.087Z,15.03
2022-08-04T16:06:22.168Z,18.23
2022-08-04T16:08:57.385Z,9.80
2022-08-04T16:11:30.999Z,11.13
2022-08-04T16:14:01.634Z,9.20
2022-08-04T16:16:50.810Z,13.10
2022-08-04T16:19:46.129Z,12.00
2022-08-04T16:22:32.151Z,11.90
2022-08-04T16:24:59.064Z,12.40
2022-08-04T16:27:43.401Z,8.43
2022-08-04T16:30:14.398Z,9.50
2022-08-04T16:32:46.558Z,11.63
2022-08-04T16:35:27.856Z,10.57
2022-08-04T16:38:11.551Z,6.60
2022-08-04T16:40:43.589Z,7.60
2022-08-04T16:43:17.233Z,5.03
2022-08-04T16:45:55.412Z,9.60
2022-08-04T16:48:27.459Z,6.13
2022-08-04T16:51:07.313Z,8.30
2022-08-04T16:53:53.172Z,11.33
2022-08-04T16:56:28.625Z,9.17
2022-08-04T16:58:55.152Z,10.57
2022-08-04T17:01:33.770Z,7.10
2022-08-04T17:04:06.623Z,8.17
2022-08-04T17:06:38.598Z,6.47
2022-08-04T17:09:08.210Z,10.40
2022-08-04T17:11:34.768Z,8.87
2022-08-04T17:14:05.384Z,7.60
2022-08-04T17:16:35.247Z,9.13
2022-08-04T17:19:02.007Z,7.30
2022-08-04T17:21:30.848Z,6.37
2022-08-04T17:24:15.490Z,4.03
2022-08-04T17:26:54.454Z,7.07
2022-08-04T17:29:43.942Z,6.50
2022-08-04T17:32:20.382Z,5.03
2022-08-04T17:34:48.999Z,4.53
2022-08-04T17:40:07.353Z,7.37
2022-08-04T17:42:38.552Z,3.13
2022-08-04T17:45:50.870Z,3.17
2022-08-04T17:48:24.872Z,3.20
2022-08-04T17:50:51.786Z,3.93
2022-08-04T17:54:01.598Z,3.70
2022-08-04T17:56:51.622Z,5.93
2022-08-04T17:59:56.667Z,5.70
2022-08-04T18:02:33.439Z,6.47
2022-08-04T18:05:07.513Z,4.43
2022-08-04T18:08:38.682Z,3.97
2022-08-04T18:10:54.233Z,3.83
2022-08-04T18:13:23.625Z,4.03
2022-08-04T18:15:51.258Z,4.70
2022-08-04T18:18:23.581Z,7.30
2022-08-04T18:20:50.498Z,4.03
2022-08-04T18:23:17.501Z,4.87
2022-08-04T18:28:34.792Z,8.37
2022-08-04T18:31:02.897Z,8.50
2022-08-04T18:33:40.255Z,7.07
2022-08-04T18:36:32.842Z,10.87
2022-08-04T18:38:58.440Z,6.63
2022-08-04T18:41:27.528Z,5.47
2022-08-04T18:43:55.539Z,6.70
2022-08-04T18:46:23.802Z,9.20
2022-08-04T18:48:53.848Z,8.80
2022-08-04T18:51:23.963Z,10.83
2022-08-04T18:53:55.014Z,10.33
2022-08-04T18:56:29.838Z,14.37
2022-08-04T18:59:04.075Z,9.10
2022-08-04T19:02:13.359Z,9.87
2022-08-04T19:04:33.409Z,9.60
2022-08-04T19:07:29.373Z,11.10
2022-08-04T19:09:59.863Z,11.23
2022-08-04T19:12:28.181Z,15.17
2022-08-04T19:15:08.002Z,13.10
2022-08-04T19:17:52.842Z,13.17
2022-08-04T19:20:25.463Z,13.30
2022-08-04T19:24:28.524Z,16.93
2022-08-04T19:28:29.295Z,18.87
2022-08-04T19:30:58.540Z,25.40
2022-08-04T19:33:25.568Z,17.23
2022-08-04T19:35:56.657Z,19.00
2022-08-04T19:38:23.705Z,20.20
2022-08-04T19:40:52.885Z,24.13
2022-08-04T19:43:20.821Z,23.90
2022-08-04T19:45:49.723Z,23.03
2022-08-04T19:48:19.497Z,23.27
2022-08-04T19:50:46.652Z,23.23
2022-08-04T19:53:18.865Z,29.47
2022-08-04T19:58:32.401Z,24.90
2022-08-04T20:00:58.990Z,19.73
2022-08-04T20:04:09.594Z,22.17
2022-08-04T20:06:12.247Z,25.90
2022-08-04T20:08:38.850Z,23.60
2022-08-04T20:11:15.215Z,21.73
2022-08-04T20:13:42.505Z,21.87
2022-08-04T20:16:29.341Z,26.50
2022-08-04T20:18:59.506Z,24.70
2022-08-04T20:21:53.838Z,28.73
2022-08-04T20:24:39.169Z,25.87
2022-08-04T20:27:07.775Z,25.67
2022-08-04T20:29:40.335Z,25.10
2022-08-04T20:32:09.450Z,28.63
2022-08-04T20:34:36.356Z,28.47
2022-08-04T20:37:02.964Z,28.50
2022-08-04T20:39:30.615Z,26.10
2022-08-04T20:41:57.412Z,30.53
2022-08-04T20:44:24.313Z,26.00
2022-08-04T20:46:51.004Z,27.90
2022-08-04T20:49:17.572Z,21.73
2022-08-04T20:51:44.201Z,26.33
2022-08-04T20:54:16.447Z,23.57
2022-08-04T20:56:50.793Z,25.87
2022-08-04T20:59:18.373Z,30.77
2022-08-04T21:01:45.494Z,26.13
2022-08-04T21:04:31.319Z,22.67
2022-08-04T21:07:03.052Z,30.57
2022-08-04T21:09:38.519Z,22.47
2022-08-04T21:12:28.105Z,28.47
2022-08-04T21:14:57.080Z,28.97
2022-08-04T21:17:58.990Z,24.00
2022-08-04T21:20:12.857Z,31.53
2022-08-04T21:22:40.030Z,27.53
2022-08-04T21:25:07.719Z,26.23
2022-08-04T21:27:42.374Z,25.20
2022-08-04T21:30:25.390Z,25.87
2022-08-04T21:32:52.753Z,23.70
2022-08-04T21:35:19.528Z,28.00
2022-08-04T21:37:57.841Z,27.93
2022-08-04T21:40:37.876Z,28.83
2022-08-04T21:43:05.780Z,30.27
2022-08-04T21:45:36.226Z,29.27
2022-08-04T21:48:04.682Z,31.87
2022-08-04T21:50:31.310Z,22.47
2022-08-04T21:52:57.789Z,24.80
2022-08-04T21:55:25.814Z,20.00
2022-08-04T21:58:13.394Z,25.53
2022-08-04T22:00:40.098Z,28.00
2022-08-04T22:03:06.618Z,28.43
2022-08-04T22:05:50.046Z,21.63
2022-08-04T22:08:19.575Z,28.63
2022-08-04T22:10:46.517Z,27.20
2022-08-04T22:13:13.104Z,23.03
2022-08-04T22:16:03.701Z,28.67
2022-08-04T22:18:31.801Z,23.03
2022-08-04T22:21:04.088Z,23.93
2022-08-04T22:23:44.889Z,22.97
2022-08-04T22:26:20.090Z,24.07
2022-08-04T22:28:52.958Z,23.80
2022-08-04T22:31:23.866Z,20.17
2022-08-04T22:33:54.685Z,24.20
2022-08-04T22:36:24.872Z,22.50
2022-08-04T22:39:01.531Z,23.67
2022-08-04T22:41:33.847Z,17.77
2022-08-04T22:44:01.058Z,15.73
2022-08-04T22:46:30.040Z,16.57
2022-08-04T22:48:57.091Z,21.33
2022-08-04T22:51:26.992Z,17.20
2022-08-04T22:53:53.846Z,19.70
2022-08-04T22:56:38.553Z,20.03
2022-08-04T22:59:06.606Z,18.27
2022-08-04T23:01:59.126Z,20.70
2022-08-04T23:04:23.178Z,19.00
2022-08-04T23:06:50.069Z,20.60
2022-08-04T23:09:17.103Z,18.03
2022-08-04T23:11:43.915Z,21.20
2022-08-04T23:14:10.636Z,10.90
2022-08-04T23:16:40.718Z,18.40
2022-08-04T23:19:09.811Z,14.00
2022-08-04T23:21:41.131Z,10.97
2022-08-04T23:24:13.667Z,13.03
2022-08-04T23:26:40.164Z,13.27
2022-08-04T23:29:08.072Z,11.93
2022-08-04T23:31:40.900Z,10.87
2022-08-04T23:34:08.644Z,10.43
2022-08-04T23:36:35.227Z,12.67
2022-08-04T23:39:03.955Z,13.33
2022-08-04T23:41:53.842Z,11.30
2022-08-04T23:44:24.252Z,7.73
2022-08-04T23:47:00.292Z,7.37
2022-08-04T23:49:44.540Z,10.90
2022-08-04T23:52:23.491Z,11.20
2022-08-04T23:54:56.116Z,6.83
2022-08-04T23:57:22.631Z,11.77
2022-08-04T23:59:54.204Z,6.33
